Latest Coastal Weather Observations for Dunalley

IDT60701

Issued at 9:12 pm EST Wednesday 22 May 2019 (issued every 10 minutes, with the page automatically refreshed every 10 minutes)

About coastal observations | Map of coastal stations | Coastal observations for TAS | Marine services | Other Formats
Station Details ID: 094254 Name: DUNALLEY (STROUD POINT) Lat: -42.90 Lon: 147.79 Height: 12.43 m
Data from the previous 72 hours. | See also: Recent months at Dunalley
Date/Time
EST
Wind Sea
Height
m
Swell Vis
km
Cloud Weather Temp
°C
Press
hPa
Rain since
9am
mm
Dir  Spd
kts
Gust
kts
Height
m
Period
s
Dir
22/09:00pm N 4 6 - - - - - - - 12.9 1023.8 0.0
22/08:30pm NW 6 8 - - - - - - - 13.7 1023.6 0.0
22/08:00pm NW 9 13 - - - - - - - 13.6 1023.5 0.0
22/07:30pm NW 8 13 - - - - - - - 14.0 1023.6 0.0
22/07:00pm NW 8 12 - - - - - - - 14.4 1023.4 0.0
22/06:30pm NW 8 12 - - - - - - - 14.6 1023.3 0.0
22/06:00pm NW 6 9 - - - - - - - 14.5 1023.1 0.0
22/05:30pm NW 9 13 - - - - - - - 15.4 1022.9 0.0
22/05:00pm WNW 12 17 - - - - - - - 15.5 1022.5 0.0
22/04:30pm WNW 10 15 - - - - - - - 16.0 1022.4 0.0
22/04:00pm WNW 14 18 - - - - - - - 16.8 1022.0 0.0
22/03:30pm WNW 14 18 - - - - - - - 17.1 1021.9 0.0
22/03:00pm NW 14 19 - - - - - - - 17.4 1021.8 0.0
22/02:30pm WNW 13 18 - - - - - - - 17.9 1022.0 0.0
22/02:00pm NW 9 14 - - - - - - - 18.1 1022.0 0.0
22/01:30pm WNW 10 16 - - - - - - - 17.6 1022.1 0.0
22/01:00pm WNW 11 18 - - - - - - - 17.5 1022.0 0.0
22/12:30pm WNW 14 22 - - - - - - - 17.2 1022.2 0.0
22/12:00pm WNW 13 21 - - - - - - - 16.8 1022.4 0.0
22/11:30am NW 8 13 - - - - - - - 15.5 1022.9 0.0
22/11:00am NNW 7 11 - - - - - - - 16.4 1023.1 0.0
22/10:30am NW 6 8 - - - - - - - 15.9 1023.2 0.0
22/10:00am NW 7 10 - - - - - - - 15.3 1023.1 0.0
22/09:30am WNW 4 7 - - - - - - - 14.8 1023.0 0.0
22/09:00am WNW 6 10 - - - - - - - 13.9 1023.0 0.0
22/08:30am WNW 9 14 - - - - - - - 13.1 1022.7 0.0
22/08:00am NW 8 11 - - - - - - - 13.0 1022.3 0.0
22/07:30am NW 7 10 - - - - - - - 12.7 1021.6 0.0
22/07:00am NW 4 5 - - - - - - - 12.8 1021.3 0.0
22/06:30am NW 8 11 - - - - - - - 12.9 1020.6 0.0
22/06:00am NW 7 10 - - - - - - - 13.3 1020.4 0.0
22/05:30am NW 7 9 - - - - - - - 13.7 1019.9 0.0
22/05:00am NW 9 13 - - - - - - - 14.1 1019.5 0.0
22/04:30am NW 8 10 - - - - - - - 13.2 1019.4 0.0
22/04:00am NNW 7 9 - - - - - - - 12.7 1019.1 0.0
22/03:30am NNW 6 7 - - - - - - - 12.9 1019.0 0.0
22/03:00am NNW 9 11 - - - - - - - 13.1 1018.8 0.0
22/02:30am NNW 9 11 - - - - - - - 13.3 1018.8 0.0
22/02:00am NNW 8 10 - - - - - - - 13.6 1018.5 0.0
22/01:30am N 6 7 - - - - - - - 13.4 1018.3 0.0
22/01:00am N 7 9 - - - - - - - 13.8 1018.3 0.0
22/12:30am N 6 7 - - - - - - - 12.9 1018.2 0.0
22/12:00am N 4 7 - - - - - - - 14.1 1018.4 0.0
 
Date/Time
EST
Wind Sea
Height
m
Swell Vis
km
Cloud Weather Temp
°C
Press
hPa
Rain since
9am
mm
Dir  Spd
kts
Gust
kts
Height
m
Period
s
Dir
21/11:30pm NNW 4 5 - - - - - - - 14.1 1018.2 0.0
21/11:00pm NE 4 6 - - - - - - - 12.8 1018.1 0.0
21/10:30pm NNW 3 5 - - - - - - - 11.2 1018.2 0.0
21/10:00pm NNW 2 3 - - - - - - - 13.4 1018.4 0.0
21/09:30pm NNW 3 5 - - - - - - - 12.5 1018.4 0.0
21/09:00pm N 2 4 - - - - - - - 13.9 1017.9 0.0
21/08:30pm NNW 5 9 - - - - - - - 14.8 1017.6 0.0
21/08:00pm NW 13 20 - - - - - - - 15.2 1017.3 0.0
21/07:30pm NW 10 13 - - - - - - - 15.2 1017.1 0.0
21/07:00pm NNW 7 11 - - - - - - - 15.3 1017.0 0.0
21/06:30pm NW 10 13 - - - - - - - 15.8 1017.0 0.0
21/06:00pm WNW 14 23 - - - - - - - 15.9 1016.5 0.0
21/05:30pm WNW 15 19 - - - - - - - 15.9 1016.3 0.0
21/05:00pm WNW 10 15 - - - - - - - 15.6 1015.9 0.0
21/04:30pm WNW 8 12 - - - - - - - 15.9 1015.5 0.0
21/04:00pm W 10 15 - - - - - - - 16.5 1015.4 0.0
21/03:30pm SW 8 10 - - - - - - - 16.4 1015.1 0.0
21/03:00pm SW 8 10 - - - - - - - 16.2 1014.8 0.0
21/02:30pm WSW 6 10 - - - - - - - 16.4 1014.5 0.0
21/02:00pm WNW 11 16 - - - - - - - 17.7 1014.3 0.0
21/01:30pm WNW 10 15 - - - - - - - 18.9 1014.3 0.0
21/01:00pm WNW 10 13 - - - - - - - 17.4 1014.3 0.0
21/12:30pm WNW 11 17 - - - - - - - 16.3 1014.4 0.0
21/12:00pm WNW 9 13 - - - - - - - 16.3 1014.4 0.0
21/11:30am WNW 11 16 - - - - - - - 16.3 1014.6 0.0
21/11:00am NNW 3 6 - - - - - - - 16.0 1014.9 0.0
21/10:30am NW 7 12 - - - - - - - 15.8 1014.5 0.0
21/10:00am NNW 9 11 - - - - - - - 15.4 1014.4 0.0
21/09:30am NW 7 9 - - - - - - - 14.8 1014.2 0.0
21/09:00am NW 10 14 - - - - - - - 15.0 1014.1 1.0
21/08:30am WNW 11 16 - - - - - - - 14.8 1013.7 1.0
21/08:00am WNW 11 15 - - - - - - - 14.7 1013.3 1.0
21/07:30am NW 9 17 - - - - - - - 14.5 1012.9 1.0
21/07:00am NW 10 16 - - - - - - - 14.2 1012.4 1.0
21/06:30am WNW 12 18 - - - - - - - 14.3 1012.3 1.0
21/06:00am WNW 12 18 - - - - - - - 14.1 1012.3 1.0
21/05:30am WNW 9 13 - - - - - - - 13.9 1012.1 1.0
21/05:00am WNW 5 8 - - - - - - - 14.0 1011.9 1.0
21/04:30am NNW 8 10 - - - - - - - 13.6 1011.4 1.0
21/04:00am N 7 10 - - - - - - - 14.3 1011.2 1.0
21/03:30am N 7 10 - - - - - - - 13.9 1011.2 1.0
21/03:00am N 7 11 - - - - - - - 13.4 1011.3 1.0
21/02:30am N 7 9 - - - - - - - 12.5 1011.6 1.0
21/02:00am NNE 7 9 - - - - - - - 12.5 1011.6 1.0
21/01:30am N 6 9 - - - - - - - 13.5 1011.8 1.0
21/01:00am N 10 13 - - - - - - - 13.7 1011.9 1.0
21/12:30am N 6 8 - - - - - - - 13.4 1012.5 1.0
21/12:00am N 8 11 - - - - - - - 13.5 1012.6 1.0
 
Date/Time
EST
Wind Sea
Height
m
Swell Vis
km
Cloud Weather Temp
°C
Press
hPa
Rain since
9am
mm
Dir  Spd
kts
Gust
kts
Height
m
Period
s
Dir
20/11:30pm N 10 12 - - - - - - - 13.1 1012.8 1.0
20/11:00pm N 11 13 - - - - - - - 13.6 1013.0 1.0
20/10:30pm CALM 0 1 - - - - - - - 12.9 1013.2 1.0
20/10:00pm N 2 4 - - - - - - - 13.2 1013.7 1.0
20/09:30pm N 4 6 - - - - - - - 13.4 1013.8 1.0
20/09:00pm NE 4 7 - - - - - - - 13.2 1014.0 1.0
20/08:30pm NE 9 11 - - - - - - - 13.2 1014.2 1.0
20/08:00pm NNE 8 11 - - - - - - - 13.2 1014.2 1.0
20/07:30pm NE 9 11 - - - - - - - 13.3 1014.5 1.0
20/07:00pm NNE 9 14 - - - - - - - 13.3 1014.5 1.0
20/06:30pm ENE 8 12 - - - - - - - 13.2 1014.6 1.0
20/06:00pm NE 12 18 - - - - - - Recent precip. 13.5 1014.8 1.0
20/05:30pm NNE 4 6 - - - - - - - 12.9 1015.2 1.0
20/05:00pm ENE 5 6 - - - - - - - 13.0 1015.4 0.8
20/04:30pm ENE 2 5 - - - - - - - 13.3 1015.4 0.6
20/04:00pm NE 5 7 - - - - - - - 12.8 1015.6 0.4
20/03:30pm NE 2 4 - - - - - - - 12.9 1015.8 0.2
20/03:00pm NE 4 4 - - - - - - - 12.9 1016.1 0.0
20/02:30pm NE 3 5 - - - - - - - 14.6 1016.3 0.0
20/02:00pm NE 3 5 - - - - - - - 14.6 1016.7 0.0
20/01:30pm NE 7 9 - - - - - - - 15.1 1017.0 0.0
20/01:00pm ENE 8 9 - - - - - - - 14.9 1017.6 0.0
20/12:30pm NE 5 7 - - - - - - - 13.7 1017.8 0.0
20/12:00pm ENE 6 8 - - - - - - - 14.0 1018.6 0.0
20/11:30am NE 4 7 - - - - - - - 13.7 1019.4 0.0
20/11:00am ENE 7 10 - - - - - - - 12.9 1019.6 0.0
20/10:30am SSW 4 6 - - - - - - - 12.2 1020.1 0.0
20/10:00am SSW 2 3 - - - - - - - 10.6 1020.3 0.0
20/09:30am CALM 0 0 - - - - - - - 10.0 1021.0 0.0
20/09:00am SSW 2 3 - - - - - - Recent precip. 9.6 1021.4 0.4
20/08:30am SSW 2 3 - - - - - - - 9.1 1021.7 0.4
20/08:00am CALM 0 0 - - - - - - - 7.8 1021.6 0.2
20/07:30am CALM 0 0 - - - - - - - 7.1 1021.5 0.2
20/07:00am CALM 0 0 - - - - - - - 7.8 1021.7 0.2
20/06:30am SSW 3 4 - - - - - - - 7.0 1021.7 0.2
20/06:00am SSW 2 3 - - - - - - - 7.4 1021.8 0.2
20/05:30am SSW 1 3 - - - - - - - 7.1 1021.9 0.2
20/05:00am CALM 0 3 - - - - - - - 7.7 1022.1 0.2
20/04:30am SSW 2 3 - - - - - - - 8.6 1022.2 0.2
20/04:00am CALM 0 0 - - - - - - - 8.8 1022.4 0.2
20/03:30am SSW 1 1 - - - - - - - 8.4 1022.5 0.2
20/03:00am SSW 3 5 - - - - - - - 8.0 1022.7 0.2
20/02:30am SSW 4 5 - - - - - - - 7.8 1022.8 0.2
20/02:00am SSW 3 4 - - - - - - - 7.8 1022.9 0.2
20/01:30am CALM 0 0 - - - - - - - 8.1 1023.3 0.2
20/01:00am CALM 0 0 - - - - - - - 8.2 1023.6 0.0
20/12:30am SSW 4 5 - - - - - - - 7.8 1024.0 0.0
20/12:00am CALM 0 2 - - - - - - - 8.3 1024.1 0.0
 
Date/Time
EST
Wind Sea
Height
m
Swell Vis
km
Cloud Weather Temp
°C
Press
hPa
Rain since
9am
mm
Dir  Spd
kts
Gust
kts
Height
m
Period
s
Dir
19/11:30pm CALM 0 0 - - - - - - - 9.1 1024.4 0.0
19/11:00pm SSW 2 3 - - - - - - - 8.1 1024.9 0.0
19/10:30pm SSW 1 3 - - - - - - - 8.8 1025.2 0.0
19/10:00pm SSW 1 1 - - - - - - - 9.7 1025.5 0.0
19/09:30pm CALM 0 1 - - - - - - - 9.6 1025.4 0.0

Other formats

Comma delimited format used in spreadsheet applications
http://www.bom.gov.au/fwo/IDT60701/IDT60701.94951.axf

JavaScript Object Notation format (JSON) in row-major order
http://www.bom.gov.au/fwo/IDT60701/IDT60701.94951.json

Data quality

Most of these data are generated automatically and are frequently updated. Quality checks on data are not normally performed. It is possible for incorrect values to appear. Refer to information at About Latest Weather Observations and please check the disclaimer before using these data.